createdAt,value
2022-08-31T00:00:11.391Z,1005.680481
2022-08-31T00:01:10.478Z,1005.750244
2022-08-31T00:02:13.833Z,1005.757324
2022-08-31T00:03:11.976Z,1005.735474
2022-08-31T00:05:14.703Z,1005.726746
2022-08-31T00:06:15.374Z,1005.739502
2022-08-31T00:07:12.777Z,1005.835144
2022-08-31T00:08:16.620Z,1005.818909
2022-08-31T00:09:15.068Z,1005.893433
2022-08-31T00:10:16.481Z,1005.840027
2022-08-31T00:11:17.650Z,1005.848267
2022-08-31T00:12:16.957Z,1005.861023
2022-08-31T00:13:18.955Z,1005.80188
2022-08-31T00:14:19.718Z,1005.810059
2022-08-31T00:15:22.117Z,1005.777649
2022-08-31T00:16:24.562Z,1005.822815
2022-08-31T00:17:20.812Z,1005.742676
2022-08-31T00:18:24.664Z,1005.750916
2022-08-31T00:19:24.922Z,1005.836853
2022-08-31T00:20:33.572Z,1005.933289
2022-08-31T00:20:33.934Z,1005.933289
2022-08-31T00:21:23.584Z,1005.829468
2022-08-31T00:22:20.187Z,1005.867493
2022-08-31T00:23:22.085Z,1005.875793
2022-08-31T00:25:22.612Z,1005.859619
2022-08-31T00:26:19.069Z,1005.840759
2022-08-31T00:27:22.893Z,1005.857056
2022-08-31T00:28:17.087Z,1005.857056
2022-08-31T00:30:15.603Z,1005.854736
2022-08-31T00:31:17.829Z,1005.827942
2022-08-31T00:32:21.632Z,1005.867493
2022-08-31T00:33:23.705Z,1005.811768
2022-08-31T00:34:18.895Z,1005.852173
2022-08-31T00:35:26.189Z,1005.811768
2022-08-31T00:36:21.492Z,1005.806091
2022-08-31T00:37:22.525Z,1005.878052
2022-08-31T00:38:24.628Z,1005.865295
2022-08-31T00:40:28.116Z,1005.892761
2022-08-31T00:41:26.678Z,1005.868591
2022-08-31T00:42:30.933Z,1005.873413
2022-08-31T00:43:24.959Z,1005.795471
2022-08-31T00:44:48.363Z,1005.851563
2022-08-31T00:45:30.171Z,1005.880615
2022-08-31T00:46:35.875Z,1005.89679
2022-08-31T00:47:34.707Z,1005.926086
2022-08-31T00:48:34.619Z,1005.815796
2022-08-31T00:49:29.950Z,1005.836792
2022-08-31T00:50:27.641Z,1005.884583
2022-08-31T00:51:29.638Z,1005.790771
2022-08-31T00:52:25.141Z,1005.830322
2022-08-31T00:53:28.117Z,1005.835144
2022-08-31T00:55:29.822Z,1005.843445
2022-08-31T00:56:38.596Z,1005.845642
2022-08-31T00:57:40.662Z,1005.805237
2022-08-31T00:58:40.352Z,1005.853027
2022-08-31T00:59:38.371Z,1005.834229
2022-08-31T01:00:39.595Z,1005.863586
2022-08-31T01:01:34.960Z,1005.855286
2022-08-31T01:02:34.277Z,1005.83905
2022-08-31T01:03:29.609Z,1005.847351
2022-08-31T01:04:29.759Z,1005.793884
2022-08-31T01:05:29.903Z,1005.841614
2022-08-31T01:06:34.232Z,1005.841614
2022-08-31T01:07:28.544Z,1005.868408
2022-08-31T01:08:31.197Z,1005.932373
2022-08-31T01:09:33.733Z,1005.886902
2022-08-31T01:10:31.771Z,1005.862671
2022-08-31T01:11:29.776Z,1005.877991
2022-08-31T01:12:29.736Z,1005.843018
2022-08-31T01:13:22.207Z,1005.851257
2022-08-31T01:14:29.106Z,1005.963928
2022-08-31T01:15:21.921Z,1005.910461
2022-08-31T01:16:25.326Z,1005.926697
2022-08-31T01:17:18.941Z,1005.910461
2022-08-31T01:18:17.097Z,1005.934692
2022-08-31T01:20:15.938Z,1005.976746
2022-08-31T01:21:18.108Z,1005.950012
2022-08-31T01:22:13.432Z,1005.952515
2022-08-31T01:23:46.017Z,1005.931458
2022-08-31T01:24:26.376Z,1005.924133
2022-08-31T01:24:47.054Z,1006.018311
2022-08-31T01:25:45.221Z,1005.981079
2022-08-31T01:26:55.366Z,1005.981079
2022-08-31T01:26:55.790Z,1005.981079
2022-08-31T01:26:55.886Z,1005.981079
2022-08-31T01:27:45.177Z,1005.946045
2022-08-31T01:28:45.169Z,1005.97052
2022-08-31T01:29:45.349Z,1005.943726
2022-08-31T01:30:43.705Z,1005.921021
2022-08-31T01:31:44.333Z,1005.901306
2022-08-31T01:32:39.806Z,1005.879395
2022-08-31T01:33:41.824Z,1005.983154
2022-08-31T01:34:37.095Z,1005.983154
2022-08-31T01:35:37.030Z,1005.952942
2022-08-31T01:36:33.452Z,1005.891541
2022-08-31T01:37:34.745Z,1005.896301
2022-08-31T01:38:30.816Z,1005.952026
2022-08-31T01:40:24.788Z,1005.880127
2022-08-31T01:41:24.724Z,1005.983521
2022-08-31T01:42:30.991Z,1005.967346
2022-08-31T01:42:33.346Z,1005.967346
2022-08-31T01:42:34.614Z,1005.967346
2022-08-31T01:43:28.173Z,1005.986084
2022-08-31T01:44:23.347Z,1005.975647
2022-08-31T01:45:27.264Z,1005.833679
2022-08-31T01:46:30.137Z,1005.92688
2022-08-31T01:47:30.708Z,1005.80127
2022-08-31T01:48:26.295Z,1005.857178
2022-08-31T01:49:28.625Z,1005.883911
2022-08-31T01:50:21.006Z,1005.925964
2022-08-31T01:51:20.835Z,1006.008301
2022-08-31T01:52:19.209Z,1005.936401
2022-08-31T01:53:19.267Z,1005.928101
2022-08-31T01:55:19.110Z,1005.916748
2022-08-31T01:56:13.474Z,1005.871582
2022-08-31T01:57:16.434Z,1005.980652
2022-08-31T01:57:21.816Z,1005.980652
2022-08-31T01:58:12.789Z,1005.921509
2022-08-31T02:00:07.593Z,1005.941223
2022-08-31T02:01:02.803Z,1005.996887
2022-08-31T02:01:10.596Z,1005.996887
2022-08-31T02:01:26.299Z,1005.996887
2022-08-31T02:02:06.545Z,1006.015625
2022-08-31T02:03:02.898Z,1006.002563
2022-08-31T02:03:59.512Z,1006.0271
2022-08-31T02:04:59.671Z,1005.986389
2022-08-31T02:06:02.583Z,1005.991089
2022-08-31T02:07:46.823Z,1006.037598
2022-08-31T02:09:50.824Z,1005.959351
2022-08-31T02:10:18.917Z,1005.961243
2022-08-31T02:11:28.291Z,1005.996887
2022-08-31T02:12:22.985Z,1006.054138
2022-08-31T02:13:23.146Z,1006.0271
2022-08-31T02:14:19.018Z,1006.085327
2022-08-31T02:15:20.887Z,1005.974854
2022-08-31T02:16:15.309Z,1006.016846
2022-08-31T02:17:16.922Z,1005.997131
2022-08-31T02:18:09.715Z,1005.958923
2022-08-31T02:19:14.399Z,1006.051697
2022-08-31T02:20:11.462Z,1006.005554
2022-08-31T02:21:22.813Z,1005.967346
2022-08-31T02:22:14.726Z,1005.929138
2022-08-31T02:23:16.635Z,1005.955811
2022-08-31T02:25:13.914Z,1005.940613
2022-08-31T02:26:06.324Z,1006.004517
2022-08-31T02:27:08.214Z,1006.015015
2022-08-31T02:27:59.744Z,1006.006714
2022-08-31T02:29:03.505Z,1006.03125
2022-08-31T02:31:06.181Z,1006.034546
2022-08-31T02:31:57.873Z,1005.996277
2022-08-31T02:33:00.038Z,1006.070618
2022-08-31T02:33:54.671Z,1006.016113
2022-08-31T02:35:05.294Z,1006.045288
2022-08-31T02:35:56.681Z,1006.050049
2022-08-31T02:36:57.046Z,1006.050049
2022-08-31T02:37:56.540Z,1005.991943
2022-08-31T02:38:52.146Z,1006.083618
2022-08-31T02:39:53.622Z,1006.124084
2022-08-31T02:40:50.069Z,1006.000916
2022-08-31T02:41:49.617Z,1006.069519
2022-08-31T02:42:52.845Z,1006.095154
2022-08-31T02:42:53.849Z,1006.095154
2022-08-31T02:42:54.267Z,1006.095154
2022-08-31T02:43:48.479Z,1006.071045
2022-08-31T02:44:42.655Z,1006.092957
2022-08-31T02:45:42.095Z,1006.078918
2022-08-31T02:46:36.339Z,1006.009399
2022-08-31T02:47:43.696Z,1006.019836
2022-08-31T02:48:45.504Z,1006.006104
2022-08-31T02:49:53.501Z,1006.059448
2022-08-31T02:50:46.614Z,1006.125488
2022-08-31T02:51:47.917Z,1006.082581
2022-08-31T02:52:41.460Z,1006.106018
2022-08-31T02:53:42.496Z,1006.038818
2022-08-31T02:54:40.043Z,1006.03064
2022-08-31T02:55:31.699Z,1006.097961
2022-08-31T02:56:35.768Z,1006.14093
2022-08-31T02:57:29.564Z,1006.116394
2022-08-31T02:58:28.565Z,1006.083923
2022-08-31T03:00:25.310Z,1006.147827
2022-08-31T03:02:18.331Z,1006.196533
2022-08-31T03:02:42.657Z,1006.109192
2022-08-31T03:03:46.470Z,1006.039612
2022-08-31T03:03:48.784Z,1006.039612
2022-08-31T03:04:43.698Z,1006.102051
2022-08-31T03:05:43.492Z,1006.034851
2022-08-31T03:06:46.462Z,1006.066223
2022-08-31T03:07:49.365Z,1006.062744
2022-08-31T03:08:42.389Z,1006.032715
2022-08-31T03:09:42.181Z,1005.952637
2022-08-31T03:10:37.894Z,1006.059448
2022-08-31T03:11:37.711Z,1006.045471
2022-08-31T03:12:42.973Z,1006.037476
2022-08-31T03:13:43.070Z,1006.07135
2022-08-31T03:14:39.287Z,1006.028442
2022-08-31T03:15:39.424Z,1006.027283
2022-08-31T03:16:39.695Z,1006.056152
2022-08-31T03:17:42.293Z,1006.013306
2022-08-31T03:18:42.795Z,1006.079529
2022-08-31T03:19:45.652Z,1006.052795
2022-08-31T03:20:43.386Z,1006.020386
2022-08-31T03:21:43.932Z,1005.993652
2022-08-31T03:22:45.529Z,1006.012085
2022-08-31T03:23:45.368Z,1005.907837
2022-08-31T03:25:44.765Z,1005.961243
2022-08-31T03:26:40.946Z,1005.886902
2022-08-31T03:27:40.564Z,1005.924072
2022-08-31T03:28:39.697Z,1005.905334
2022-08-31T03:29:41.631Z,1005.870728
2022-08-31T03:30:44.481Z,1005.881104
2022-08-31T03:31:43.724Z,1005.945007
2022-08-31T03:32:41.404Z,1005.939209
2022-08-31T03:33:40.847Z,1005.947205
2022-08-31T03:34:36.262Z,1005.955444
2022-08-31T03:35:39.874Z,1005.992493
2022-08-31T03:36:31.928Z,1005.951782
2022-08-31T03:37:30.678Z,1005.951782
2022-08-31T03:38:28.525Z,1005.960083
2022-08-31T03:40:26.764Z,1005.927673
2022-08-31T03:42:12.747Z,1005.891541
2022-08-31T03:43:04.796Z,1005.898499
2022-08-31T03:44:06.715Z,1005.879761
2022-08-31T03:45:17.191Z,1005.898499
2022-08-31T03:46:16.441Z,1005.977417
2022-08-31T03:47:12.215Z,1005.914673
2022-08-31T03:48:13.271Z,1005.978455
2022-08-31T03:49:07.963Z,1005.960083
2022-08-31T03:51:07.709Z,1006.013428
2022-08-31T03:52:09.768Z,1005.968018
2022-08-31T03:53:11.500Z,1005.997192
2022-08-31T03:54:14.684Z,1005.997192
2022-08-31T03:55:14.535Z,1005.96228
2022-08-31T03:56:09.909Z,1005.954285
2022-08-31T03:57:12.754Z,1005.991394
2022-08-31T03:58:10.693Z,1005.948425
2022-08-31T03:59:09.384Z,1005.983154
2022-08-31T04:01:04.369Z,1005.966858
2022-08-31T04:01:58.886Z,1005.948425
2022-08-31T04:02:57.238Z,1005.881104
2022-08-31T04:03:57.895Z,1005.977356
2022-08-31T04:05:53.860Z,1005.878906
2022-08-31T04:06:47.145Z,1005.948425
2022-08-31T04:07:48.663Z,1005.964661
2022-08-31T04:08:42.024Z,1005.927673
2022-08-31T04:09:40.797Z,1005.906738
2022-08-31T04:10:36.988Z,1005.940247
2022-08-31T04:11:44.547Z,1005.895142
2022-08-31T04:11:44.902Z,1005.895142
2022-08-31T04:12:40.342Z,1005.972717
2022-08-31T04:13:37.850Z,1005.935547
2022-08-31T04:14:42.052Z,1005.949585
2022-08-31T04:15:37.293Z,1005.86377
2022-08-31T04:16:37.834Z,1005.882202
2022-08-31T04:17:33.412Z,1005.852173
2022-08-31T04:18:40.923Z,1005.899841
2022-08-31T04:19:38.883Z,1005.953125
2022-08-31T04:20:37.546Z,1005.904358
2022-08-31T04:21:37.659Z,1005.949524
2022-08-31T04:22:40.164Z,1005.933289
2022-08-31T04:23:41.009Z,1005.962524
2022-08-31T04:24:41.138Z,1005.943726
2022-08-31T04:25:42.946Z,1005.991272
2022-08-31T04:26:35.059Z,1005.974976
2022-08-31T04:27:35.259Z,1006.026245
2022-08-31T04:28:31.335Z,1006.015808
2022-08-31T04:29:36.071Z,1006.039978
2022-08-31T04:30:31.218Z,1006.00531
2022-08-31T04:31:32.075Z,1006.023743
2022-08-31T04:32:37.650Z,1006.050476
2022-08-31T04:33:39.785Z,1006.07959
2022-08-31T04:35:38.744Z,1006.026245
2022-08-31T04:37:26.626Z,1005.992432
2022-08-31T04:38:08.015Z,1006.014526
2022-08-31T04:39:08.717Z,1006.044861
2022-08-31T04:41:10.449Z,1006.063293
2022-08-31T04:42:12.023Z,1006.127014
2022-08-31T04:43:08.664Z,1006.121277
2022-08-31T04:44:09.666Z,1006.123779
2022-08-31T04:45:06.108Z,1006.160767
2022-08-31T04:46:10.936Z,1006.112122
2022-08-31T04:47:06.511Z,1006.1922
2022-08-31T04:48:08.255Z,1006.146729
2022-08-31T04:49:06.544Z,1006.120056
2022-08-31T04:50:09.971Z,1006.085388
2022-08-31T04:51:07.911Z,1006.132996
2022-08-31T04:52:10.660Z,1006.17804
2022-08-31T04:53:07.094Z,1006.084229
2022-08-31T04:54:07.855Z,1006.059692
2022-08-31T04:56:06.701Z,1006.148071
2022-08-31T04:57:13.143Z,1006.17688
2022-08-31T04:58:10.758Z,1006.256897
2022-08-31T04:59:12.469Z,1006.133911
2022-08-31T05:00:11.727Z,1006.158447
2022-08-31T05:01:12.237Z,1006.195618
2022-08-31T05:02:18.113Z,1006.189758
2022-08-31T05:03:18.458Z,1006.128113
2022-08-31T05:04:16.958Z,1006.181458
2022-08-31T05:06:21.163Z,1006.233582
2022-08-31T05:07:19.551Z,1006.168274
2022-08-31T05:08:21.164Z,1006.178772
2022-08-31T05:09:17.488Z,1006.178772
2022-08-31T05:10:22.926Z,1006.17688
2022-08-31T05:11:21.748Z,1006.150208
2022-08-31T05:11:25.131Z,1006.150208
2022-08-31T05:12:23.004Z,1006.121094
2022-08-31T05:13:20.035Z,1006.195007
2022-08-31T05:15:24.638Z,1006.164063
2022-08-31T05:16:19.980Z,1006.166504
2022-08-31T05:17:23.128Z,1006.174438
2022-08-31T05:18:23.188Z,1006.123596
2022-08-31T05:19:21.310Z,1006.168274
2022-08-31T05:20:25.972Z,1006.133728
2022-08-31T05:21:24.343Z,1006.187012
2022-08-31T05:22:25.520Z,1006.156738
2022-08-31T05:23:55.247Z,1006.181274
2022-08-31T05:24:35.811Z,1006.213745
2022-08-31T05:25:36.212Z,1006.211548
2022-08-31T05:26:31.479Z,1006.123596
2022-08-31T05:27:31.973Z,1006.147827
2022-08-31T05:28:28.271Z,1006.174438
2022-08-31T05:29:29.246Z,1006.182739
2022-08-31T05:30:29.113Z,1006.209351
2022-08-31T05:31:29.358Z,1006.178772
2022-08-31T05:32:32.566Z,1006.226257
2022-08-31T05:33:27.682Z,1006.156738
2022-08-31T05:34:22.401Z,1006.215881
2022-08-31T05:35:24.549Z,1006.205444
2022-08-31T05:36:17.034Z,1006.224121
2022-08-31T05:37:17.561Z,1006.170776
2022-08-31T05:38:15.900Z,1006.210022
2022-08-31T05:39:15.713Z,1006.212524
2022-08-31T05:41:13.744Z,1006.235474
2022-08-31T05:42:06.361Z,1006.200806
2022-08-31T05:43:07.542Z,1006.182129
2022-08-31T05:44:03.026Z,1006.288757
2022-08-31T05:46:00.257Z,1006.320007
2022-08-31T05:47:03.473Z,1006.338745
2022-08-31T05:47:56.964Z,1006.252991
2022-08-31T05:48:57.687Z,1006.358276
2022-08-31T05:51:01.284Z,1006.374512
2022-08-31T05:51:56.630Z,1006.307129
2022-08-31T05:52:59.784Z,1006.339661
2022-08-31T05:53:54.002Z,1006.321228
2022-08-31T05:54:53.377Z,1006.345459
2022-08-31T05:55:49.443Z,1006.331665
2022-08-31T05:56:48.448Z,1006.368774
2022-08-31T05:57:43.862Z,1006.290833
2022-08-31T05:58:44.040Z,1006.303772
2022-08-31T05:59:39.172Z,1006.293274
2022-08-31T06:00:39.317Z,1006.346558
2022-08-31T06:01:40.291Z,1006.33252
2022-08-31T06:02:35.463Z,1006.320801
2022-08-31T06:03:39.575Z,1006.32782
2022-08-31T06:05:32.952Z,1006.321899
2022-08-31T06:06:29.843Z,1006.414368
2022-08-31T06:07:27.220Z,1006.400574
2022-08-31T06:08:29.513Z,1006.405151
2022-08-31T06:09:26.959Z,1006.380554
2022-08-31T06:10:29.464Z,1006.347961
2022-08-31T06:12:13.039Z,1006.41687
2022-08-31T06:12:53.051Z,1006.397339
2022-08-31T06:13:52.597Z,1006.376587
2022-08-31T06:14:53.362Z,1006.386963
2022-08-31T06:15:46.091Z,1006.418152
2022-08-31T06:16:46.999Z,1006.364868
2022-08-31T06:17:42.227Z,1006.457336
2022-08-31T06:18:41.358Z,1006.381897
2022-08-31T06:19:35.650Z,1006.365601
2022-08-31T06:20:37.626Z,1006.362183
2022-08-31T06:21:34.829Z,1006.39093
2022-08-31T06:22:33.688Z,1006.373291
2022-08-31T06:23:29.281Z,1006.418579
2022-08-31T06:24:33.016Z,1006.362976
2022-08-31T06:25:25.641Z,1006.41626
2022-08-31T06:26:25.671Z,1006.430481
2022-08-31T06:27:21.189Z,1006.405884
2022-08-31T06:28:22.515Z,1006.419983
2022-08-31T06:29:16.868Z,1006.411743
2022-08-31T06:31:11.400Z,1006.473267
2022-08-31T06:32:11.134Z,1006.427979
2022-08-31T06:33:06.483Z,1006.417664
2022-08-31T06:34:06.845Z,1006.401306
2022-08-31T06:35:01.511Z,1006.401306
2022-08-31T06:36:08.387Z,1006.39093
2022-08-31T06:37:04.302Z,1006.343506
2022-08-31T06:38:04.094Z,1006.399231
2022-08-31T06:38:58.512Z,1006.393372
2022-08-31T06:40:00.286Z,1006.411743
2022-08-31T06:40:52.985Z,1006.436279
2022-08-31T06:41:54.969Z,1006.395447
2022-08-31T06:42:46.731Z,1006.432495
2022-08-31T06:43:48.399Z,1006.442871
2022-08-31T06:44:40.209Z,1006.387512
2022-08-31T06:45:38.549Z,1006.506592
2022-08-31T06:46:40.302Z,1006.469543
2022-08-31T06:47:33.093Z,1006.467407
2022-08-31T06:48:33.206Z,1006.451172
2022-08-31T06:50:26.795Z,1006.576172
2022-08-31T06:51:22.137Z,1006.469543
2022-08-31T06:52:21.319Z,1006.492737
2022-08-31T06:53:16.916Z,1006.540161
2022-08-31T06:54:29.169Z,1006.58313
2022-08-31T06:54:30.033Z,1006.58313
2022-08-31T06:54:30.717Z,1006.58313
2022-08-31T06:57:11.769Z,1006.617249
2022-08-31T06:58:06.261Z,1006.668457
2022-08-31T06:59:08.102Z,1006.531433
2022-08-31T07:01:07.302Z,1006.573608
2022-08-31T07:01:35.828Z,1006.621277
2022-08-31T07:02:30.527Z,1006.589233
2022-08-31T07:03:29.957Z,1006.60083
2022-08-31T07:04:26.166Z,1006.554199
2022-08-31T07:05:25.589Z,1006.515015
2022-08-31T07:06:21.006Z,1006.589233
2022-08-31T07:07:19.762Z,1006.649231
2022-08-31T07:08:15.090Z,1006.635376
2022-08-31T07:09:15.472Z,1006.595886
2022-08-31T07:11:13.903Z,1006.642517
2022-08-31T07:12:06.526Z,1006.701721
2022-08-31T07:13:05.999Z,1006.6297
2022-08-31T07:14:01.142Z,1006.701721
2022-08-31T07:15:00.444Z,1006.563721
2022-08-31T07:15:55.353Z,1006.657654
2022-08-31T07:16:55.063Z,1006.706421
2022-08-31T07:17:50.249Z,1006.618408
2022-08-31T07:18:49.650Z,1006.696045
2022-08-31T07:19:45.703Z,1006.71228
2022-08-31T07:20:44.903Z,1006.662964
2022-08-31T07:21:40.147Z,1006.735962
2022-08-31T07:22:39.463Z,1006.653748
2022-08-31T07:23:34.862Z,1006.747559
2022-08-31T07:25:29.839Z,1006.7547
2022-08-31T07:26:32.419Z,1006.719666
2022-08-31T07:26:36.579Z,1006.719666
2022-08-31T07:27:26.046Z,1006.811401
2022-08-31T07:28:28.530Z,1006.726746
2022-08-31T07:29:21.015Z,1006.777954
2022-08-31T07:30:20.312Z,1006.783752
2022-08-31T07:31:20.290Z,1006.738464
2022-08-31T07:32:13.055Z,1006.730469
2022-08-31T07:33:12.810Z,1006.751221
2022-08-31T07:34:08.163Z,1006.8172
2022-08-31T07:35:07.584Z,1006.763916
2022-08-31T07:36:02.923Z,1006.712952
2022-08-31T07:37:02.166Z,1006.780151
2022-08-31T07:37:58.321Z,1006.684998
2022-08-31T07:38:58.580Z,1006.731628
2022-08-31T07:40:55.049Z,1006.760803
2022-08-31T07:41:49.916Z,1006.788696
2022-08-31T07:42:49.615Z,1006.759521
2022-08-31T07:43:44.961Z,1006.786194
2022-08-31T07:44:52.943Z,1006.804932
2022-08-31T07:44:53.050Z,1006.804932
2022-08-31T07:45:43.001Z,1006.784058
2022-08-31T07:46:38.116Z,1006.862793
2022-08-31T07:47:41.138Z,1006.815247
2022-08-31T07:48:33.924Z,1006.861877
2022-08-31T07:50:29.602Z,1006.825439
2022-08-31T07:51:32.552Z,1006.831299
2022-08-31T07:53:00.676Z,1006.771118
2022-08-31T07:53:40.559Z,1006.848755
2022-08-31T07:54:14.450Z,1006.790649
2022-08-31T07:56:09.353Z,1006.882324
2022-08-31T07:57:09.122Z,1006.91156
2022-08-31T07:58:04.119Z,1006.860291
2022-08-31T07:59:03.842Z,1006.857056
2022-08-31T08:00:01.203Z,1006.881165
2022-08-31T08:01:00.867Z,1006.940491
2022-08-31T08:01:58.337Z,1006.924194
2022-08-31T08:02:53.656Z,1006.899902
2022-08-31T08:03:50.978Z,1006.875488
2022-08-31T08:05:47.277Z,1006.919556
2022-08-31T08:06:47.735Z,1006.923096
2022-08-31T08:07:43.923Z,1006.961426
2022-08-31T08:07:51.047Z,1006.961426
2022-08-31T08:07:54.924Z,1006.961426
2022-08-31T08:08:42.288Z,1006.941589
2022-08-31T08:10:39.157Z,1007.008972
2022-08-31T08:11:39.793Z,1006.910095
2022-08-31T08:12:36.062Z,1006.91687
2022-08-31T08:13:34.509Z,1007.014404
2022-08-31T08:14:35.097Z,1006.972412
2022-08-31T08:15:30.734Z,1006.97821
2022-08-31T08:16:32.268Z,1006.938721
2022-08-31T08:17:27.964Z,1006.926697
2022-08-31T08:18:31.598Z,1006.994202
2022-08-31T08:19:24.873Z,1007.042969
2022-08-31T08:20:37.182Z,1006.98468
2022-08-31T08:20:37.457Z,1006.98468
2022-08-31T08:21:27.004Z,1007.009949
2022-08-31T08:22:41.629Z,1006.944702
2022-08-31T08:22:50.663Z,1006.944702
2022-08-31T08:22:51.744Z,1006.944702
2022-08-31T08:23:26.694Z,1006.996582
2022-08-31T08:23:28.645Z,1006.996582
2022-08-31T08:24:22.921Z,1006.995178
2022-08-31T08:25:19.158Z,1007.100647
2022-08-31T08:25:25.929Z,1007.100647
2022-08-31T08:26:21.719Z,1007.039063
2022-08-31T08:27:17.450Z,1006.975098
2022-08-31T08:28:38.776Z,1006.986572
2022-08-31T08:28:39.150Z,1006.986572
2022-08-31T08:28:39.156Z,1006.986572
2022-08-31T08:29:17.719Z,1006.994507
2022-08-31T08:30:13.897Z,1007.032654
2022-08-31T08:31:14.990Z,1006.929382
2022-08-31T08:32:16.812Z,1006.976868
2022-08-31T08:32:17.680Z,1006.976868
2022-08-31T08:33:12.819Z,1006.987427
2022-08-31T08:34:09.110Z,1006.986084
2022-08-31T08:36:06.669Z,1006.962646
2022-08-31T08:37:07.629Z,1006.98468
2022-08-31T08:38:07.705Z,1006.969238
2022-08-31T08:39:08.950Z,1006.943359
2022-08-31T08:41:05.337Z,1006.962646
2022-08-31T08:42:01.828Z,1007
2022-08-31T08:43:03.382Z,1007.02533
2022-08-31T08:44:00.010Z,1006.956299
2022-08-31T08:46:06.717Z,1006.979065
2022-08-31T08:46:15.243Z,1006.979065
2022-08-31T08:46:31.187Z,1006.979065
2022-08-31T08:47:46.689Z,1006.924438
2022-08-31T08:48:43.660Z,1007.042908
2022-08-31T08:51:10.364Z,1007.091553
2022-08-31T08:51:50.451Z,1007.070496
2022-08-31T08:52:50.931Z,1007.076111
2022-08-31T08:53:49.304Z,1007.101318
2022-08-31T08:55:44.442Z,1007.103577
2022-08-31T08:56:44.955Z,1007.109192
2022-08-31T08:57:43.158Z,1007.136108
2022-08-31T08:58:39.102Z,1007.114868
2022-08-31T09:00:40.375Z,1007.091492
2022-08-31T09:01:40.134Z,1007.17749
2022-08-31T09:02:35.139Z,1007.027344
2022-08-31T09:03:31.381Z,1007.145752
2022-08-31T09:04:31.702Z,1007.159363
2022-08-31T09:06:32.238Z,1007.179199
2022-08-31T09:06:45.364Z,1007.179199
2022-08-31T09:07:29.813Z,1007.153137
2022-08-31T09:08:23.529Z,1007.05658
2022-08-31T09:09:23.707Z,1007.107483
2022-08-31T09:11:19.844Z,1007.069397
2022-08-31T09:12:15.937Z,1007.148132
2022-08-31T09:13:16.123Z,1007.174988
2022-08-31T09:14:11.685Z,1007.153137
2022-08-31T09:16:07.848Z,1007.148132
2022-08-31T09:17:10.677Z,1007.148132
2022-08-31T09:18:03.864Z,1007.126221
2022-08-31T09:19:01.706Z,1007.104431
2022-08-31T09:20:04.562Z,1007.106812
2022-08-31T09:20:57.653Z,1007.024048
2022-08-31T09:21:55.733Z,1007.091248
2022-08-31T09:22:56.565Z,1007.051575
2022-08-31T09:23:52.661Z,1007.096863
2022-08-31T09:26:28.721Z,1007.074707
2022-08-31T09:28:07.061Z,1007.11908
2022-08-31T09:28:46.752Z,1006.966736
2022-08-31T09:29:44.681Z,1007.017639
2022-08-31T09:30:44.744Z,1007.076904
2022-08-31T09:31:40.137Z,1006.967346
2022-08-31T09:32:40.094Z,1006.994141
2022-08-31T09:33:35.418Z,1007.08252
2022-08-31T09:34:35.262Z,1006.911072
2022-08-31T09:36:31.819Z,1006.849976
2022-08-31T09:37:27.102Z,1006.951721
2022-08-31T09:38:26.906Z,1007.040161
2022-08-31T09:39:22.079Z,1007.018311
2022-08-31T09:41:16.978Z,1006.916626
2022-08-31T09:42:16.525Z,1006.992004
2022-08-31T09:43:17.866Z,1006.906555
2022-08-31T09:43:18.353Z,1006.906555
2022-08-31T09:44:11.872Z,1007.035645
2022-08-31T09:45:07.491Z,1006.936707
2022-08-31T09:46:07.530Z,1006.93396
2022-08-31T09:47:02.315Z,1007.05188
2022-08-31T09:48:02.055Z,1006.928467
2022-08-31T09:48:57.326Z,1006.965759
2022-08-31T09:49:57.304Z,1006.982056
2022-08-31T09:50:52.708Z,1006.993225
2022-08-31T09:51:54.577Z,1007.001404
2022-08-31T09:52:47.028Z,1006.947815
2022-08-31T09:53:49.110Z,1006.896545
2022-08-31T09:55:41.772Z,1007.022644
2022-08-31T09:56:37.031Z,1006.950134
2022-08-31T09:57:36.445Z,1006.969055
2022-08-31T09:58:31.735Z,1006.955811
2022-08-31T09:59:33.743Z,1006.971436
2022-08-31T10:01:26.926Z,1006.977051
2022-08-31T10:02:22.880Z,1006.97406
2022-08-31T10:03:23.594Z,1006.94458
2022-08-31T10:04:19.068Z,1006.939514
2022-08-31T10:05:21.455Z,1006.929504
2022-08-31T10:06:16.719Z,1006.865234
2022-08-31T10:07:15.628Z,1006.895325
2022-08-31T10:08:10.573Z,1006.975769
2022-08-31T10:09:08.990Z,1007.042908
2022-08-31T10:11:02.441Z,1006.973145
2022-08-31T10:12:01.722Z,1006.914368
2022-08-31T10:13:02.057Z,1006.885132
2022-08-31T10:13:54.576Z,1006.958191
2022-08-31T10:15:50.323Z,1006.983154
2022-08-31T10:16:53.035Z,1006.859619
2022-08-31T10:17:46.944Z,1006.913757
2022-08-31T10:19:26.652Z,1006.887451
2022-08-31T10:20:06.754Z,1006.807373
2022-08-31T10:21:04.994Z,1006.863892
2022-08-31T10:22:04.239Z,1006.834717
2022-08-31T10:22:59.673Z,1006.888733
2022-08-31T10:23:59.596Z,1006.835144
2022-08-31T10:25:54.614Z,1006.886108
2022-08-31T10:26:50.902Z,1006.854126
2022-08-31T10:27:50.160Z,1006.843018
2022-08-31T10:28:44.936Z,1006.896729
2022-08-31T10:30:41.392Z,1006.872986
2022-08-31T10:31:40.849Z,1006.827332
2022-08-31T10:32:36.192Z,1006.878601
2022-08-31T10:33:35.892Z,1006.881409
2022-08-31T10:34:31.190Z,1006.881409
2022-08-31T10:35:29.973Z,1006.905762
2022-08-31T10:36:28.109Z,1006.886902
2022-08-31T10:37:22.837Z,1006.892029
2022-08-31T10:38:22.559Z,1006.84906
2022-08-31T10:39:17.919Z,1006.865173
2022-08-31T10:41:12.295Z,1006.873413
2022-08-31T10:42:14.566Z,1006.902649
2022-08-31T10:43:07.194Z,1006.800842
2022-08-31T10:44:09.324Z,1006.878967
2022-08-31T10:46:02.538Z,1006.81189
2022-08-31T10:46:57.904Z,1006.868774
2022-08-31T10:47:58.495Z,1006.815002
2022-08-31T10:48:53.924Z,1006.825623
2022-08-31T10:50:48.243Z,1006.839111
2022-08-31T10:51:48.009Z,1006.788574
2022-08-31T10:52:43.190Z,1006.866394
2022-08-31T10:53:42.786Z,1006.837097
2022-08-31T10:54:37.506Z,1006.810303
2022-08-31T10:56:33.190Z,1006.810303
2022-08-31T10:57:32.440Z,1006.810303
2022-08-31T10:58:27.766Z,1006.83197
2022-08-31T10:59:29.951Z,1006.724548
2022-08-31T11:00:22.692Z,1006.743103
2022-08-31T11:01:25.189Z,1006.807861
2022-08-31T11:02:20.034Z,1006.910156
2022-08-31T11:03:22.313Z,1006.888916
2022-08-31T11:04:46.179Z,1006.840637
2022-08-31T11:06:23.698Z,1006.848877
2022-08-31T11:07:23.701Z,1006.830017
2022-08-31T11:08:19.341Z,1006.924316
2022-08-31T11:09:19.473Z,1006.905396